Time;durP1;ratioP1;P1;durP2;ratioP2;P2;SDS_P1;SDS_P2;PMS_P1;PMS_P2;Temp;Humidity;BMP_temperature;BMP_pressure;BME280_temperature;BME280_humidity;BME280_pressure;Samples;Min_cycle;Max_cycle;Signal;HPM_P1;HPM_P2
2021/08/21 00:00:00;;;;;;;5.47;3.13;;;;;;;19.81;65.72;100625.69;5035705;28;20128;-66
2021/08/21 00:02:27;;;;;;;5.45;3.03;;;;;;;19.84;65.36;100616.53;5035522;28;20053;-65
2021/08/21 00:04:54;;;;;;;6.03;2.60;;;;;;;19.84;65.35;100616.53;5036478;28;20049;-65
2021/08/21 00:07:21;;;;;;;4.63;2.50;;;;;;;19.83;65.50;100626.19;5035610;28;20049;-65
2021/08/21 00:09:48;;;;;;;4.78;2.28;;;;;;;19.81;65.89;100620.84;5035109;28;20088;-65
2021/08/21 00:12:15;;;;;;;3.95;1.73;;;;;;;19.74;65.69;100616.91;5035455;28;20084;-65
2021/08/21 00:14:42;;;;;;;4.03;2.53;;;;;;;19.73;65.63;100618.09;5035425;28;20565;-65
2021/08/21 00:17:08;;;;;;;7.28;2.50;;;;;;;19.65;65.56;100606.44;5035533;28;20073;-65
2021/08/21 00:19:35;;;;;;;5.50;2.28;;;;;;;19.65;65.81;100617.75;5035678;28;20603;-66
2021/08/21 00:22:02;;;;;;;8.02;2.65;;;;;;;19.60;65.53;100606.59;5053949;28;20084;-66
2021/08/21 00:24:29;;;;;;;3.83;2.80;;;;;;;19.66;65.82;100618.63;5054016;28;20306;-65
2021/08/21 00:26:56;;;;;;;5.75;2.60;;;;;;;19.71;65.72;100620.41;5042498;28;20184;-65
2021/08/21 00:29:23;;;;;;;5.75;2.55;;;;;;;19.63;65.72;100611.63;5035281;28;20253;-66
2021/08/21 00:31:50;;;;;;;5.53;3.00;;;;;;;19.69;65.53;100625.56;5035152;28;20124;-66
2021/08/21 00:34:16;;;;;;;6.70;2.88;;;;;;;19.62;65.79;100624.09;5050296;28;20061;-66
2021/08/21 00:36:45;;;;;;;6.85;2.58;;;;;;;19.59;65.95;100619.13;5035153;28;20125;-66
2021/08/21 00:39:12;;;;;;;4.13;2.47;;;;;;;19.64;65.81;100615.28;5034578;28;20505;-66
2021/08/21 00:41:38;;;;;;;5.20;2.95;;;;;;;19.57;65.87;100607.28;5034926;28;20124;-66
2021/08/21 00:44:06;;;;;;;7.40;3.47;;;;;;;19.73;65.74;100618.09;5034734;28;20083;-66
2021/08/21 00:46:52;;;;;;;3.88;2.75;;;;;;;19.76;65.63;100606.03;5034863;28;20053;-66
2021/08/21 00:49:19;;;;;;;4.10;2.70;;;;;;;19.77;65.50;100619.06;5034876;28;20072;-66
2021/08/21 00:51:46;;;;;;;4.30;2.47;;;;;;;19.75;65.24;100610.88;5034610;28;20128;-66
2021/08/21 00:54:13;;;;;;;5.43;2.70;;;;;;;19.71;65.47;100597.75;5034519;28;20538;-66
2021/08/21 00:56:40;;;;;;;4.03;2.03;;;;;;;19.79;65.31;100605.34;5035640;28;20045;-66
2021/08/21 00:59:08;;;;;;;5.85;3.10;;;;;;;19.79;65.43;100611.03;5050095;28;20081;-66
2021/08/21 01:01:35;;;;;;;8.70;3.10;;;;;;;19.70;65.13;100596.09;5055126;28;20409;-66
2021/08/21 01:04:04;;;;;;;4.50;2.90;;;;;;;19.71;65.20;100614.75;5052869;28;20571;-66
2021/08/21 01:06:31;;;;;;;6.10;3.33;;;;;;;19.57;64.93;100598.78;5054426;28;20107;-66
2021/08/21 01:08:57;;;;;;;4.93;2.70;;;;;;;19.60;65.07;100609.44;5049900;28;20124;-65
2021/08/21 01:11:24;;;;;;;4.63;2.50;;;;;;;19.54;64.98;100613.63;5034449;28;20092;-66
2021/08/21 01:13:51;;;;;;;5.03;2.50;;;;;;;19.43;65.38;100603.84;5034776;28;20137;-66
2021/08/21 01:16:20;;;;;;;5.50;2.75;;;;;;;19.50;65.25;100597.66;5034773;28;20084;-65
2021/08/21 01:18:48;;;;;;;4.07;2.38;;;;;;;19.50;65.59;100597.66;5034402;28;20049;-65
2021/08/21 01:21:15;;;;;;;5.25;2.63;;;;;;;19.49;65.72;100598.84;5034511;28;20073;-66
2021/08/21 01:23:42;;;;;;;5.88;2.90;;;;;;;19.48;65.65;100592.31;5034083;28;20081;-65
2021/08/21 01:26:10;;;;;;;8.63;2.90;;;;;;;19.44;65.95;100587.69;5034262;28;20095;-65
2021/08/21 01:28:37;;;;;;;6.72;2.50;;;;;;;19.40;66.00;100590.34;5034101;28;20128;-65
2021/08/21 01:31:05;;;;;;;6.90;3.35;;;;;;;19.39;66.28;100592.38;5049867;28;20153;-65
2021/08/21 01:33:33;;;;;;;4.75;2.72;;;;;;;19.01;66.33;100538.56;5053716;28;20059;-65
2021/08/21 01:36:00;;;;;;;5.85;3.13;;;;;;;19.31;66.36;100590.38;5053916;28;20080;-65
2021/08/21 01:38:27;;;;;;;5.47;3.40;;;;;;;19.18;66.26;100580.94;5053906;28;20049;-65
2021/08/21 01:40:54;;;;;;;8.68;3.85;;;;;;;19.27;66.57;100597.06;5035532;28;20108;-66
2021/08/21 01:43:24;;;;;;;5.72;3.00;;;;;;;19.25;66.61;100580.44;5033811;28;20081;-64
2021/08/21 01:45:51;;;;;;;7.50;3.50;;;;;;;19.25;66.26;100580.44;5033756;28;20095;-66
2021/08/21 01:48:18;;;;;;;6.25;2.72;;;;;;;19.30;66.04;100588.72;5034183;28;20044;-66
2021/08/21 01:50:46;;;;;;;4.53;2.70;;;;;;;19.31;66.09;100575.41;5033731;28;20121;-65
2021/08/21 01:53:14;;;;;;;4.93;2.55;;;;;;;19.37;65.84;100577.69;5033439;28;20050;-65
2021/08/21 01:55:42;;;;;;;8.95;3.15;;;;;;;19.39;66.34;100575.38;5033789;28;20163;-64
2021/08/21 01:58:19;;;;;;;9.20;3.38;;;;;;;19.35;65.87;100579.19;5033330;28;20072;-65
2021/08/21 02:00:47;;;;;;;6.90;3.17;;;;;;;19.35;65.94;100568.72;5033761;28;20100;-65
2021/08/21 02:03:14;;;;;;;4.32;3.38;;;;;;;19.28;66.15;100561.91;5033563;28;20073;-65
2021/08/21 02:05:41;;;;;;;6.45;3.45;;;;;;;19.38;66.23;100579.38;5034515;28;20118;-65
2021/08/21 02:08:07;;;;;;;7.80;2.90;;;;;;;19.31;66.00;100566.91;5033290;28;20133;-65
2021/08/21 02:10:35;;;;;;;8.10;4.05;;;;;;;19.29;66.17;100567.25;5033943;28;20461;-65
2021/08/21 02:13:01;;;;;;;6.55;3.65;;;;;;;19.37;66.07;100576.88;5032233;28;20120;-65
2021/08/21 02:15:28;;;;;;;6.82;3.47;;;;;;;19.35;65.99;100568.72;5033202;28;20045;-65
2021/08/21 02:17:55;;;;;;;7.22;3.33;;;;;;;19.33;66.03;100573.91;5040790;28;20088;-65
2021/08/21 02:20:22;;;;;;;5.82;3.40;;;;;;;19.30;66.04;100571.75;5051905;28;20044;-65
2021/08/21 02:22:49;;;;;;;7.10;3.47;;;;;;;19.27;66.19;100577.25;5047394;28;20112;-66
2021/08/21 02:25:16;;;;;;;7.20;3.63;;;;;;;19.17;66.42;100567.13;5032884;28;20085;-66
2021/08/21 02:27:55;;;;;;;5.15;2.83;;;;;;;19.20;66.25;100562.78;5032794;28;20092;-66
2021/08/21 02:30:23;;;;;;;6.20;3.08;;;;;;;19.05;66.50;100548.03;5033073;28;20055;-66
2021/08/21 02:32:49;;;;;;;6.35;3.38;;;;;;;19.18;66.61;100568.81;5032514;28;20084;-66
2021/08/21 02:35:16;;;;;;;5.20;3.00;;;;;;;19.08;66.20;100557.84;5033000;28;20111;-66
2021/08/21 02:37:43;;;;;;;6.78;3.28;;;;;;;19.16;66.50;100565.47;5033584;28;20135;-66
2021/08/21 02:40:11;;;;;;;6.70;3.20;;;;;;;19.09;66.54;100551.84;5032941;28;20100;-66
2021/08/21 02:42:38;;;;;;;7.85;3.50;;;;;;;19.02;66.36;100557.19;5032815;28;20089;-66
2021/08/21 02:45:05;;;;;;;4.93;2.88;;;;;;;19.07;66.62;100568.31;5032453;28;20128;-66
2021/08/21 02:47:32;;;;;;;4.97;2.92;;;;;;;18.65;66.98;100517.13;5032766;28;20076;-66
2021/08/21 02:49:59;;;;;;;5.15;2.58;;;;;;;18.90;66.84;100562.69;5032683;28;20077;-66
2021/08/21 02:52:26;;;;;;;5.43;2.75;;;;;;;18.94;66.99;100569.38;5032777;28;20429;-66
2021/08/21 02:54:52;;;;;;;6.38;3.47;;;;;;;18.88;67.09;100570.72;5033070;28;20096;-66
2021/08/21 02:57:19;;;;;;;3.28;1.95;;;;;;;18.75;67.58;100557.59;5032551;28;20510;-66
2021/08/21 02:59:46;;;;;;;3.90;2.10;;;;;;;18.72;67.50;100552.59;5032618;28;20092;-66
2021/08/21 03:02:13;;;;;;;7.45;2.28;;;;;;;18.70;67.62;100558.56;5032439;28;20045;-66
2021/08/21 03:04:39;;;;;;;5.07;2.83;;;;;;;18.57;67.68;100534.97;5032413;28;20087;-66
2021/08/21 03:07:06;;;;;;;3.95;2.45;;;;;;;18.72;67.52;100550.59;5032239;28;20133;-66
2021/08/21 03:09:33;;;;;;;3.97;2.50;;;;;;;18.68;67.06;100543.91;5032485;28;20125;-66
2021/08/21 03:12:00;;;;;;;3.97;2.50;;;;;;;18.68;67.46;100555.22;5033305;28;20451;-66
2021/08/21 03:14:27;;;;;;;4.78;2.05;;;;;;;18.66;67.19;100546.25;5014608;28;20136;-66
2021/08/21 03:16:53;;;;;;;4.75;2.67;;;;;;;18.60;67.39;100542.78;5032346;28;20557;-66
2021/08/21 03:19:20;;;;;;;4.35;2.40;;;;;;;18.72;67.07;100549.78;5032217;28;20085;-66
2021/08/21 03:21:47;;;;;;;4.38;2.30;;;;;;;18.70;67.07;100552.91;5032006;28;20127;-66
2021/08/21 03:24:14;;;;;;;5.32;2.45;;;;;;;18.66;67.55;100543.41;5032287;28;20148;-66
2021/08/21 03:26:41;;;;;;;7.80;2.80;;;;;;;18.73;67.28;100557.06;5032603;28;20128;-66
2021/08/21 03:29:09;;;;;;;4.22;2.38;;;;;;;18.74;67.44;100555.94;5032667;28;20133;-66
2021/08/21 03:31:36;;;;;;;4.45;2.50;;;;;;;18.70;66.88;100544.44;5032135;28;20128;-66
2021/08/21 03:34:03;;;;;;;4.95;2.42;;;;;;;18.72;67.22;100553.41;5031885;28;20054;-66
2021/08/21 03:36:31;;;;;;;6.53;2.72;;;;;;;18.75;67.03;100564.06;5032266;28;20129;-65
2021/08/21 03:38:58;;;;;;;6.43;2.80;;;;;;;18.69;67.07;100549.22;5032169;28;20073;-65
2021/08/21 03:41:24;;;;;;;4.45;2.72;;;;;;;18.80;66.95;100566.72;5031861;28;20103;-66
2021/08/21 03:43:51;;;;;;;3.95;2.25;;;;;;;18.75;67.00;100540.63;5050325;28;20073;-66
2021/08/21 03:46:18;;;;;;;5.07;2.88;;;;;;;18.74;66.82;100548.28;5045458;28;20081;-66
2021/08/21 03:48:45;;;;;;;6.28;2.78;;;;;;;18.70;66.84;100542.44;5031997;28;20063;-66
2021/08/21 03:51:12;;;;;;;8.00;2.67;;;;;;;18.75;66.56;100552.75;5041379;28;20163;-67
2021/08/21 03:53:38;;;;;;;7.10;3.53;;;;;;;18.76;66.85;100556.41;5041327;28;20140;-66
2021/08/21 03:56:05;;;;;;;6.32;2.80;;;;;;;18.72;66.89;100544.09;5032130;28;20088;-66
2021/08/21 03:58:32;;;;;;;4.97;2.50;;;;;;;18.78;66.75;100551.25;5041457;28;20132;-66
2021/08/21 04:00:59;;;;;;;7.95;2.97;;;;;;;18.68;66.83;100544.75;5050335;28;20095;-66
2021/08/21 04:03:26;;;;;;;6.85;2.63;;;;;;;18.78;66.81;100560.56;5050937;28;20073;-66
2021/08/21 04:05:53;;;;;;;5.65;3.50;;;;;;;18.77;66.98;100558.06;5036779;28;20556;-67
2021/08/21 04:08:20;;;;;;;5.53;2.53;;;;;;;18.75;66.92;100557.59;5033129;28;20545;-66
2021/08/21 04:10:46;;;;;;;7.50;2.72;;;;;;;18.57;67.21;100537.78;5051621;28;20041;-66
2021/08/21 04:13:13;;;;;;;4.57;2.45;;;;;;;18.62;67.20;100548.09;5051796;28;20128;-66
2021/08/21 04:15:40;;;;;;;4.82;2.72;;;;;;;18.63;67.53;100555.41;5045232;28;20144;-66
2021/08/21 04:18:07;;;;;;;5.13;2.65;;;;;;;18.53;67.49;100548.13;5031906;28;20054;-66
2021/08/21 04:20:34;;;;;;;4.00;2.30;;;;;;;18.50;67.75;100562.09;5041222;28;20076;-65
2021/08/21 04:23:00;;;;;;;4.75;3.17;;;;;;;18.34;67.71;100550.44;5051703;28;20131;-65
2021/08/21 04:25:27;;;;;;;6.28;2.72;;;;;;;18.32;67.52;100564.06;5051524;28;20083;-65
2021/08/21 04:27:54;;;;;;;5.00;2.30;;;;;;;18.26;67.89;100566.25;5034600;28;20173;-65
2021/08/21 04:30:21;;;;;;;3.80;2.53;;;;;;;18.15;68.21;100560.09;5031605;28;20045;-66
2021/08/21 04:32:48;;;;;;;4.25;2.17;;;;;;;18.09;68.67;100567.06;5050323;28;20049;-66
2021/08/21 04:35:15;;;;;;;5.32;2.08;;;;;;;17.94;68.67;100547.75;5054638;28;20470;-66
2021/08/21 04:37:42;;;;;;;3.47;1.98;;;;;;;17.94;69.11;100559.88;5054223;28;20069;-65
2021/08/21 04:40:09;;;;;;;5.40;2.08;;;;;;;17.93;69.05;100561.06;5035135;28;20141;-65
2021/08/21 04:42:36;;;;;;;5.03;2.72;;;;;;;17.90;69.61;100575.00;5035088;28;20081;-65
2021/08/21 04:45:04;;;;;;;3.30;2.05;;;;;;;17.74;69.46;100552.00;5035189;28;20192;-65
2021/08/21 04:47:32;;;;;;;4.50;2.55;;;;;;;17.77;69.82;100569.16;5034659;28;20295;-65
2021/08/21 04:49:58;;;;;;;8.25;2.97;;;;;;;17.86;69.84;100580.47;5034622;28;20137;-65
2021/08/21 04:52:25;;;;;;;5.22;2.55;;;;;;;17.89;69.38;100568.53;5037579;28;20267;-66
2021/08/21 04:54:52;;;;;;;7.55;2.40;;;;;;;17.91;69.07;100571.00;5052414;28;20135;-66
2021/08/21 04:57:19;;;;;;;4.88;2.50;;;;;;;18.00;68.84;100574.69;5054890;28;20140;-66
2021/08/21 04:59:46;;;;;;;4.93;3.03;;;;;;;17.98;68.99;100560.91;5052888;28;20132;-66
2021/08/21 05:02:13;;;;;;;4.05;2.42;;;;;;;18.15;68.65;100582.72;5034683;28;20057;-65
2021/08/21 05:04:40;;;;;;;6.75;3.17;;;;;;;18.17;68.90;100580.34;5034668;28;20052;-65
2021/08/21 05:07:07;;;;;;;4.03;2.72;;;;;;;18.17;68.97;100583.19;5034883;28;20454;-65
2021/08/21 05:09:34;;;;;;;5.28;2.50;;;;;;;18.13;68.72;100579.38;5034372;28;20541;-65
2021/08/21 05:12:01;;;;;;;4.15;2.67;;;;;;;17.97;69.06;100553.56;5035164;28;20413;-65
2021/08/21 05:14:28;;;;;;;4.57;2.63;;;;;;;18.16;68.67;100575.88;5034227;28;20077;-66
2021/08/21 05:16:55;;;;;;;7.00;2.75;;;;;;;18.20;69.31;100591.00;5034435;28;20088;-66
2021/08/21 05:22:09;;;;;;;6.28;2.85;;;;;;;18.19;69.39;100597.00;5032890;28;20163;-66
2021/08/21 05:24:36;;;;;;;3.33;2.17;;;;;;;18.12;69.06;100600.31;5034264;28;20569;-65
2021/08/21 05:27:03;;;;;;;4.45;2.53;;;;;;;18.13;69.21;100607.63;5049719;28;20405;-66
2021/08/21 05:29:30;;;;;;;4.32;2.25;;;;;;;18.15;69.33;100605.31;5034750;28;20394;-65
2021/08/21 05:31:57;;;;;;;4.15;2.33;;;;;;;18.17;69.23;100607.78;5034080;28;20073;-65
2021/08/21 05:34:23;;;;;;;5.82;2.50;;;;;;;18.21;69.40;100612.44;5033692;28;20050;-65
2021/08/21 05:36:50;;;;;;;4.22;2.58;;;;;;;18.24;69.56;100617.44;5034263;28;20048;-65
2021/08/21 05:39:17;;;;;;;4.97;2.35;;;;;;;18.30;68.97;100615.28;5033920;28;20524;-65
2021/08/21 05:41:44;;;;;;;3.80;2.70;;;;;;;18.26;68.60;100593.69;5034196;28;20073;-66
2021/08/21 05:44:11;;;;;;;5.72;2.58;;;;;;;18.55;68.71;100630.59;5047716;28;20446;-66
2021/08/21 05:46:37;;;;;;;4.43;2.88;;;;;;;18.60;68.50;100621.97;5044721;28;20132;-66
2021/08/21 05:49:04;;;;;;;5.53;3.03;;;;;;;18.76;68.30;100633.63;5034790;28;20046;-65
2021/08/21 05:51:31;;;;;;;3.97;2.88;;;;;;;18.82;68.07;100640.78;5033802;28;20128;-65
2021/08/21 05:53:58;;;;;;;5.13;3.85;;;;;;;18.81;67.81;100626.97;5041072;28;20136;-66
2021/08/21 05:56:25;;;;;;;4.22;3.03;;;;;;;18.91;67.70;100643.63;5053739;28;20149;-65
2021/08/21 05:58:52;;;;;;;5.38;2.83;;;;;;;18.95;67.65;100644.59;5041058;28;20084;-65
2021/08/21 06:01:19;;;;;;;5.15;3.10;;;;;;;18.97;67.24;100647.09;5033433;28;20076;-64
2021/08/21 06:03:46;;;;;;;3.95;2.85;;;;;;;18.92;67.27;100643.25;5033982;28;20555;-65
2021/08/21 06:06:13;;;;;;;3.72;2.58;;;;;;;18.84;67.04;100640.47;5033761;28;20295;-65
2021/08/21 06:08:40;;;;;;;3.75;2.40;;;;;;;18.88;66.77;100647.09;5033322;28;20041;-65
2021/08/21 06:11:07;;;;;;;5.22;3.10;;;;;;;18.89;66.94;100654.41;5033249;28;20124;-66
2021/08/21 06:13:34;;;;;;;6.18;2.78;;;;;;;18.82;66.80;100654.09;5033213;28;20442;-66
2021/08/21 06:16:01;;;;;;;6.38;3.05;;;;;;;18.88;66.80;100664.09;5038555;28;20071;-65
2021/08/21 06:18:28;;;;;;;5.47;4.68;;;;;;;18.80;66.64;100662.91;5053031;28;20077;-65
2021/08/21 06:20:55;;;;;;;6.38;4.80;;;;;;;18.75;66.69;100659.44;5045335;28;20077;-65
2021/08/21 06:23:22;;;;;;;4.93;2.85;;;;;;;18.87;66.59;100674.56;5032965;28;20088;-65
2021/08/21 06:25:48;;;;;;;5.82;3.85;;;;;;;18.90;66.37;100671.06;5049308;28;20045;-65
2021/08/21 06:28:15;;;;;;;5.25;3.80;;;;;;;18.93;66.48;100663.91;5050728;28;20461;-66
2021/08/21 06:30:42;;;;;;;3.78;3.08;;;;;;;19.00;66.31;100681.22;5032977;28;20077;-64
2021/08/21 06:33:09;;;;;;;5.65;2.50;;;;;;;18.92;66.62;100671.56;5032879;28;20052;-65
2021/08/21 06:35:36;;;;;;;4.30;3.10;;;;;;;18.88;66.49;100662.09;5033217;28;20139;-65
2021/08/21 06:38:03;;;;;;;4.13;2.70;;;;;;;19.10;66.49;100682.88;5032325;28;20136;-65
2021/08/21 06:40:33;;;;;;;5.55;2.90;;;;;;;19.19;66.36;100675.19;5032898;28;20132;-65
2021/08/21 06:43:00;;;;;;;4.30;2.78;;;;;;;19.26;66.69;100684.00;5032279;28;20136;-66
2021/08/21 06:45:27;;;;;;;3.80;2.78;;;;;;;19.22;66.50;100668.03;5032479;28;20077;-65
2021/08/21 06:47:55;;;;;;;4.38;2.75;;;;;;;19.26;66.23;100666.19;5031446;28;20132;-65
2021/08/21 06:50:22;;;;;;;6.03;2.83;;;;;;;19.31;66.35;100675.31;5032498;28;20132;-65
2021/08/21 06:52:51;;;;;;;5.18;2.95;;;;;;;19.30;66.30;100670.84;5034302;28;20132;-66
2021/08/21 06:55:18;;;;;;;4.57;2.90;;;;;;;19.42;66.18;100687.16;5052487;28;20057;-66
2021/08/21 06:58:04;;;;;;;8.63;3.20;;;;;;;19.43;65.95;100685.97;5051454;28;20044;-66
2021/08/21 07:00:31;;;;;;;6.43;2.67;;;;;;;19.44;66.07;100690.47;5051345;28;20182;-66
2021/08/21 07:02:58;;;;;;;6.70;3.15;;;;;;;19.36;66.15;100663.84;5052293;28;20583;-66
2021/08/21 07:05:25;;;;;;;6.80;2.88;;;;;;;19.47;65.70;100692.63;5052515;28;20398;-65
2021/08/21 07:07:51;;;;;;;7.47;3.00;;;;;;;19.51;65.89;100693.59;5051248;28;20139;-66
2021/08/21 07:10:19;;;;;;;7.03;3.50;;;;;;;19.49;65.74;100684.63;5035523;28;20046;-66
2021/08/21 07:12:46;;;;;;;4.45;3.55;;;;;;;19.54;66.00;100681.59;5032448;28;20140;-66
2021/08/21 07:15:13;;;;;;;6.15;2.92;;;;;;;19.71;65.92;100694.09;5032247;28;20049;-65
2021/08/21 07:17:39;;;;;;;6.55;3.22;;;;;;;19.81;66.05;100693.72;5032583;28;20148;-67
2021/08/21 07:20:07;;;;;;;5.38;3.13;;;;;;;19.90;65.97;100686.00;5032244;28;20545;-64
2021/08/21 07:22:34;;;;;;;6.28;2.97;;;;;;;20.04;65.73;100691.44;5032276;28;20476;-64
2021/08/21 07:25:01;;;;;;;6.03;3.55;;;;;;;20.09;65.58;100689.22;5031249;28;20080;-64
2021/08/21 07:27:28;;;;;;;7.13;3.63;;;;;;;20.06;65.38;100691.91;5032832;28;20072;-64
2021/08/21 07:29:54;;;;;;;6.07;3.40;;;;;;;20.18;65.28;100697.69;5032672;28;20445;-63
2021/08/21 07:32:21;;;;;;;6.10;3.78;;;;;;;20.21;65.54;100707.53;5032264;28;20077;-64
2021/08/21 07:34:48;;;;;;;5.85;3.55;;;;;;;20.16;65.31;100704.88;5037005;28;20049;-64
2021/08/21 07:37:15;;;;;;;6.38;3.15;;;;;;;20.14;65.53;100705.22;5032057;28;20080;-64
2021/08/21 07:39:42;;;;;;;5.93;2.58;;;;;;;20.17;65.55;100707.38;5031843;28;20049;-64
2021/08/21 07:42:09;;;;;;;3.30;2.25;;;;;;;20.09;65.58;100694.91;5048321;28;20143;-64
2021/08/21 07:44:35;;;;;;;5.90;2.63;;;;;;;20.16;65.75;100702.88;5042771;28;20506;-64
2021/08/21 07:47:02;;;;;;;5.63;2.90;;;;;;;20.32;65.67;100712.47;5031836;28;20140;-64
2021/08/21 07:49:29;;;;;;;3.83;2.53;;;;;;;20.29;65.65;100706.66;5031908;28;20136;-64
2021/08/21 07:51:56;;;;;;;6.47;2.53;;;;;;;20.38;65.52;100726.47;5031836;28;20076;-63
2021/08/21 07:54:23;;;;;;;5.13;2.55;;;;;;;20.25;65.47;100717.00;5031936;28;20136;-64
2021/08/21 07:56:50;;;;;;;5.20;2.75;;;;;;;20.23;65.44;100717.34;5032448;28;20073;-64
2021/08/21 07:59:17;;;;;;;4.32;2.60;;;;;;;20.09;65.60;100734.59;5031716;28;20553;-64
2021/08/21 08:01:44;;;;;;;5.82;3.55;;;;;;;20.08;65.70;100744.28;5032534;28;20133;-64
2021/08/21 08:04:10;;;;;;;5.60;3.60;;;;;;;20.07;65.67;100734.13;5033832;28;20080;-64
2021/08/21 08:06:37;;;;;;;6.53;3.10;;;;;;;20.01;65.60;100738.31;5031838;28;20079;-64
2021/08/21 08:09:04;;;;;;;7.22;3.53;;;;;;;19.82;65.84;100729.38;5035019;28;20049;-64
2021/08/21 08:11:31;;;;;;;6.13;2.95;;;;;;;19.68;66.08;100723.09;5035359;28;20041;-64
2021/08/21 08:13:58;;;;;;;4.95;3.50;;;;;;;19.52;66.16;100714.25;5035324;28;20103;-64
2021/08/21 08:16:25;;;;;;;6.70;3.28;;;;;;;19.73;66.20;100737.91;5035707;28;20069;-64
2021/08/21 08:18:52;;;;;;;5.43;3.03;;;;;;;19.67;66.07;100733.59;5034645;28;20132;-64
2021/08/21 08:21:21;;;;;;;4.18;2.78;;;;;;;19.65;66.31;100735.91;5034292;28;20512;-64
2021/08/21 08:23:48;;;;;;;6.97;3.20;;;;;;;19.50;66.62;100736.44;5035546;28;20096;-64
2021/08/21 08:26:15;;;;;;;5.57;3.33;;;;;;;19.52;66.54;100739.75;5035645;28;20446;-64
2021/08/21 08:28:42;;;;;;;4.10;2.80;;;;;;;19.26;67.10;100725.66;5054039;28;20461;-64
2021/08/21 08:31:10;;;;;;;5.68;2.80;;;;;;;19.46;67.27;100746.78;5053981;28;20077;-64
2021/08/21 08:33:37;;;;;;;4.10;2.70;;;;;;;19.36;67.12;100728.97;5035342;28;20468;-64
2021/08/21 08:36:04;;;;;;;7.95;3.60;;;;;;;19.41;67.38;100739.28;5035464;28;20080;-64
2021/08/21 08:38:31;;;;;;;18.83;2.45;;;;;;;19.44;67.41;100721.63;5035081;28;20045;-65
2021/08/21 08:40:59;;;;;;;3.85;2.97;;;;;;;19.87;66.84;100738.53;5034944;28;20100;-65
2021/08/21 08:43:28;;;;;;;6.32;4.03;;;;;;;20.33;65.94;100724.63;5043743;28;20123;-63
2021/08/21 08:45:55;;;;;;;5.05;3.40;;;;;;;20.87;65.04;100747.50;5046769;28;20137;-63
2021/08/21 08:48:22;;;;;;;7.30;3.67;;;;;;;21.40;64.17;100742.22;5035088;28;20128;-63
2021/08/21 08:50:49;;;;;;;11.90;2.78;;;;;;;21.66;62.93;100739.13;5034988;28;20136;-63
2021/08/21 08:53:16;;;;;;;6.68;4.10;;;;;;;21.82;62.61;100753.50;5034936;28;20110;-64
2021/08/21 08:55:46;;;;;;;3.88;2.78;;;;;;;21.82;62.33;100742.97;5034573;28;20050;-64
2021/08/21 08:58:13;;;;;;;;;;;;;;;21.98;62.51;100745.94;5035044;28;20077;-63
2021/08/21 09:00:39;;;;;;;5.28;3.63;;;;;;;22.23;61.30;100755.38;5034564;28;20443;-64
2021/08/21 09:03:18;;;;;;;6.72;3.50;;;;;;;22.68;60.60;100746.69;5034727;28;20046;-64
2021/08/21 09:05:45;;;;;;;6.20;3.45;;;;;;;23.40;59.97;100748.88;5034494;28;20042;-64
2021/08/21 09:08:33;;;;;;;4.35;2.50;;;;;;;23.92;58.32;100764.19;5034554;28;20077;-64
2021/08/21 09:11:18;;;;;;;4.13;1.83;;;;;;;24.00;57.63;100746.91;5054398;28;20053;-64
2021/08/21 09:13:44;;;;;;;7.43;2.80;;;;;;;24.30;57.21;100757.84;5054267;28;20041;-64
2021/08/21 09:16:11;;;;;;;3.78;2.25;;;;;;;24.42;56.49;100756.97;5040403;28;20087;-64
2021/08/21 09:18:38;;;;;;;3.33;1.98;;;;;;;24.72;56.42;100757.28;5034136;28;20080;-64
2021/08/21 09:21:11;;;;;;;5.05;2.22;;;;;;;24.86;55.79;100771.06;5033808;28;20134;-64
2021/08/21 09:23:46;;;;;;;3.72;2.10;;;;;;;25.42;54.97;100762.94;5036256;28;20049;-62
2021/08/21 09:26:30;;;;;;;3.92;2.10;;;;;;;26.11;54.33;100771.66;5048681;28;20049;-63
2021/08/21 09:28:59;;;;;;;4.30;2.00;;;;;;;26.49;52.99;100767.03;5034239;28;20144;-65
2021/08/21 09:31:30;;;;;;;3.38;1.92;;;;;;;26.83;52.93;100767.97;5034105;28;20136;-64
2021/08/21 09:34:01;;;;;;;4.85;2.00;;;;;;;27.30;51.84;100754.31;5033947;28;20141;-64
2021/08/21 09:36:31;;;;;;;3.90;1.80;;;;;;;27.83;51.18;100782.88;5034107;28;20136;-64
2021/08/21 09:39:00;;;;;;;4.97;2.67;;;;;;;28.01;50.45;100775.28;5045992;28;20080;-64
2021/08/21 09:41:27;;;;;;;2.47;1.92;;;;;;;28.39;49.57;100787.56;5053809;28;20118;-64
2021/08/21 09:44:08;;;;;;;3.03;1.70;;;;;;;28.66;49.25;100788.19;5052789;28;20128;-65
2021/08/21 09:46:37;;;;;;;3.95;1.73;;;;;;;29.11;48.66;100799.59;5053715;28;20136;-64
2021/08/21 09:49:10;;;;;;;2.38;1.67;;;;;;;29.31;48.26;100797.25;5052397;28;20045;-64
2021/08/21 09:51:47;;;;;;;3.22;1.73;;;;;;;29.25;47.66;100791.88;5047738;28;20045;-64
2021/08/21 09:54:17;;;;;;;1.85;1.48;;;;;;;29.47;47.08;100800.59;5032276;28;20144;-64
2021/08/21 09:56:52;;;;;;;2.38;1.60;;;;;;;29.65;46.76;100783.47;5034045;28;20124;-63
2021/08/21 09:59:43;;;;;;;1.85;1.42;;;;;;;29.54;46.37;100803.53;5049290;28;20136;-63
2021/08/21 10:02:13;;;;;;;2.58;1.85;;;;;;;29.40;46.06;100792.78;5053596;28;20391;-63
2021/08/21 10:04:44;;;;;;;3.90;2.03;;;;;;;29.70;45.73;100768.66;5053288;28;20139;-63
2021/08/21 10:07:24;;;;;;;3.22;2.10;;;;;;;30.45;44.88;100794.75;5052093;28;20144;-63
2021/08/21 10:09:53;;;;;;;5.10;2.03;;;;;;;30.83;44.30;100798.88;5053526;28;20049;-63
2021/08/21 10:12:23;;;;;;;3.05;1.50;;;;;;;31.30;43.79;100804.53;5053577;28;20456;-63
2021/08/21 10:14:52;;;;;;;2.08;1.27;;;;;;;31.36;42.99;100808.69;5045847;28;20053;-63
2021/08/21 10:17:20;;;;;;;3.60;1.60;;;;;;;31.38;42.93;100803.28;5034118;28;20073;-63
2021/08/21 10:19:49;;;;;;;1.35;1.08;;;;;;;31.28;42.70;100798.34;5033189;28;20515;-63
2021/08/21 10:22:18;;;;;;;3.53;1.40;;;;;;;31.24;42.79;100795.47;5033139;28;20609;-63
2021/08/21 10:24:49;;;;;;;4.55;1.65;;;;;;;31.27;42.94;100803.31;5033099;28;20118;-63
2021/08/21 10:27:59;;;;;;;2.45;1.38;;;;;;;31.04;43.20;100809.53;5046568;28;20141;-64
2021/08/21 10:30:44;;;;;;;2.22;1.33;;;;;;;30.77;43.33;100806.31;5030468;28;20096;-64
2021/08/21 10:33:12;;;;;;;3.20;1.55;;;;;;;30.74;43.17;100800.50;5047746;28;20080;-66
2021/08/21 10:35:45;;;;;;;2.95;1.52;;;;;;;30.63;43.41;100812.88;5033391;28;20088;-64
2021/08/21 10:38:33;;;;;;;4.18;1.30;;;;;;;30.66;43.22;100819.84;5031817;28;20077;-64
2021/08/21 10:41:12;;;;;;;5.25;2.13;;;;;;;30.66;43.14;100819.84;5032989;28;20046;-64
2021/08/21 10:43:54;;;;;;;1.25;1.10;;;;;;;30.49;43.84;100817.78;5032651;28;20073;-64
2021/08/21 10:46:30;;;;;;;3.13;1.58;;;;;;;30.62;43.54;100822.72;5032715;28;20441;-64
2021/08/21 10:48:59;;;;;;;4.00;1.88;;;;;;;30.84;43.07;100823.59;5032555;28;20481;-64
2021/08/21 10:51:36;;;;;;;2.35;1.67;;;;;;;31.29;42.27;100812.38;5033208;28;20096;-64
2021/08/21 10:54:24;;;;;;;2.50;1.42;;;;;;;31.70;41.78;100820.50;5031501;28;20045;-64
2021/08/21 10:56:53;;;;;;;1.65;1.17;;;;;;;31.90;41.33;100817.13;5032743;28;20446;-65
2021/08/21 10:59:58;;;;;;;3.63;1.00;;;;;;;32.72;40.91;100826.09;5032517;28;20465;-63
2021/08/21 11:02:28;;;;;;;2.72;1.48;;;;;;;33.52;38.98;100832.75;4994606;28;20056;-63
2021/08/21 11:04:56;;;;;;;1.35;1.15;;;;;;;34.09;37.88;100826.22;5010472;28;20140;-63
2021/08/21 11:07:37;;;;;;;4.55;1.20;;;;;;;34.55;37.89;100821.81;5021496;28;20041;-63
2021/08/21 11:10:13;;;;;;;1.75;1.10;;;;;;;34.67;37.31;100821.19;5032263;28;20100;-64
2021/08/21 11:12:42;;;;;;;1.90;1.52;;;;;;;34.66;37.14;100831.13;5032198;28;20086;-63
2021/08/21 11:15:17;;;;;;;1.73;0.98;;;;;;;34.41;37.34;100819.94;5032590;28;20132;-63
2021/08/21 11:17:44;;;;;;;3.50;1.10;;;;;;;34.05;37.13;100819.63;5032639;28;20099;-63
2021/08/21 11:20:33;;;;;;;2.30;1.23;;;;;;;33.79;37.65;100820.41;5032202;28;20172;-63
2021/08/21 11:23:06;;;;;;;2.17;1.02;;;;;;;33.68;37.45;100818.47;5032227;28;20049;-63
2021/08/21 11:25:38;;;;;;;3.15;1.05;;;;;;;33.47;37.54;100825.34;5032496;28;20052;-64
2021/08/21 11:28:20;;;;;;;1.55;1.15;;;;;;;33.10;37.85;100810.88;5032173;28;20124;-64
2021/08/21 11:31:10;;;;;;;3.38;1.17;;;;;;;32.75;38.66;100818.59;5032052;28;20091;-64
2021/08/21 11:33:41;;;;;;;1.25;0.98;;;;;;;31.86;38.89;100786.19;5031630;28;20049;-63